sensor_id;sensor_type;location;lat;lon;timestamp;pressure;altitude;pressure_sealevel;temperature;humidity
51781;BME280;37844;57.126;24.288;2023-10-19T00:02:13;101191.03;;;3.48;100.00
51781;BME280;37844;57.126;24.288;2023-10-19T00:05:03;101192.84;;;3.51;100.00
51781;BME280;37844;57.126;24.288;2023-10-19T00:07:48;101191.94;;;3.67;100.00
51781;BME280;37844;57.126;24.288;2023-10-19T00:10:33;101196.81;;;3.62;100.00
51781;BME280;37844;57.126;24.288;2023-10-19T00:13:18;101201.69;;;3.93;100.00
51781;BME280;37844;57.126;24.288;2023-10-19T00:16:04;101194.06;;;4.13;100.00
51781;BME280;37844;57.126;24.288;2023-10-19T00:19:01;101202.31;;;4.25;100.00
51781;BME280;37844;57.126;24.288;2023-10-19T00:21:47;101194.28;;;4.35;100.00
51781;BME280;37844;57.126;24.288;2023-10-19T00:24:35;101198.97;;;4.45;100.00
51781;BME280;37844;57.126;24.288;2023-10-19T00:27:19;101196.28;;;4.42;100.00
51781;BME280;37844;57.126;24.288;2023-10-19T00:30:07;101190.66;;;4.30;100.00
51781;BME280;37844;57.126;24.288;2023-10-19T00:32:52;101183.09;;;4.14;100.00
51781;BME280;37844;57.126;24.288;2023-10-19T00:35:38;101185.72;;;4.15;100.00
51781;BME280;37844;57.126;24.288;2023-10-19T00:38:31;101183.47;;;4.03;100.00
51781;BME280;37844;57.126;24.288;2023-10-19T00:41:24;101182.75;;;4.06;100.00
51781;BME280;37844;57.126;24.288;2023-10-19T00:44:12;101188.72;;;4.07;100.00
51781;BME280;37844;57.126;24.288;2023-10-19T00:47:00;101189.66;;;4.09;100.00
51781;BME280;37844;57.126;24.288;2023-10-19T00:49:48;101196.63;;;4.13;100.00
51781;BME280;37844;57.126;24.288;2023-10-19T00:52:32;101191.47;;;4.11;100.00
51781;BME280;37844;57.126;24.288;2023-10-19T00:55:26;101193.28;;;4.14;100.00
51781;BME280;37844;57.126;24.288;2023-10-19T00:58:12;101190.53;;;4.09;100.00
51781;BME280;37844;57.126;24.288;2023-10-19T01:01:04;101195.34;;;4.03;100.00
51781;BME280;37844;57.126;24.288;2023-10-19T01:03:51;101194.25;;;3.98;100.00
51781;BME280;37844;57.126;24.288;2023-10-19T01:06:43;101206.31;;;3.48;100.00
51781;BME280;37844;57.126;24.288;2023-10-19T01:09:28;101202.94;;;3.31;100.00
51781;BME280;37844;57.126;24.288;2023-10-19T01:12:21;101198.84;;;3.17;100.00
51781;BME280;37844;57.126;24.288;2023-10-19T01:15:22;101197.63;;;2.92;100.00
51781;BME280;37844;57.126;24.288;2023-10-19T01:18:12;101186.38;;;2.89;100.00
51781;BME280;37844;57.126;24.288;2023-10-19T01:20:58;101187.72;;;2.82;100.00
51781;BME280;37844;57.126;24.288;2023-10-19T01:23:51;101189.84;;;2.73;100.00
51781;BME280;37844;57.126;24.288;2023-10-19T01:26:36;101187.19;;;2.71;100.00
51781;BME280;37844;57.126;24.288;2023-10-19T01:29:22;101188.22;;;2.75;100.00
51781;BME280;37844;57.126;24.288;2023-10-19T01:32:11;101191.91;;;2.80;100.00
51781;BME280;37844;57.126;24.288;2023-10-19T01:34:59;101189.03;;;2.74;100.00
51781;BME280;37844;57.126;24.288;2023-10-19T01:37:43;101190.69;;;2.73;100.00
51781;BME280;37844;57.126;24.288;2023-10-19T01:40:26;101190.13;;;2.63;100.00
51781;BME280;37844;57.126;24.288;2023-10-19T01:43:14;101192.38;;;2.73;100.00
51781;BME280;37844;57.126;24.288;2023-10-19T01:46:06;101193.06;;;2.87;100.00
51781;BME280;37844;57.126;24.288;2023-10-19T01:48:56;101197.19;;;3.01;100.00
51781;BME280;37844;57.126;24.288;2023-10-19T01:51:40;101182.56;;;3.13;100.00
51781;BME280;37844;57.126;24.288;2023-10-19T01:54:27;101190.19;;;3.13;100.00
51781;BME280;37844;57.126;24.288;2023-10-19T01:57:11;101196.97;;;3.31;100.00
51781;BME280;37844;57.126;24.288;2023-10-19T01:59:58;101188.44;;;3.47;100.00
51781;BME280;37844;57.126;24.288;2023-10-19T02:02:42;101190.72;;;3.24;100.00
51781;BME280;37844;57.126;24.288;2023-10-19T02:05:27;101177.06;;;2.89;100.00
51781;BME280;37844;57.126;24.288;2023-10-19T02:08:17;101189.50;;;2.67;100.00
51781;BME280;37844;57.126;24.288;2023-10-19T02:11:07;101188.41;;;2.62;100.00
51781;BME280;37844;57.126;24.288;2023-10-19T02:14:00;101193.53;;;2.63;100.00
51781;BME280;37844;57.126;24.288;2023-10-19T02:16:50;101186.56;;;2.59;100.00
51781;BME280;37844;57.126;24.288;2023-10-19T02:19:40;101193.56;;;2.47;100.00
51781;BME280;37844;57.126;24.288;2023-10-19T02:22:24;101185.75;;;2.60;100.00
51781;BME280;37844;57.126;24.288;2023-10-19T02:25:08;101185.75;;;2.60;100.00
51781;BME280;37844;57.126;24.288;2023-10-19T02:27:54;101189.84;;;2.57;100.00
51781;BME280;37844;57.126;24.288;2023-10-19T02:30:38;101185.50;;;2.55;100.00
51781;BME280;37844;57.126;24.288;2023-10-19T02:33:24;101186.00;;;2.65;100.00
51781;BME280;37844;57.126;24.288;2023-10-19T02:36:11;101197.00;;;2.64;100.00
51781;BME280;37844;57.126;24.288;2023-10-19T02:38:57;101193.25;;;2.73;100.00
51781;BME280;37844;57.126;24.288;2023-10-19T02:41:44;101192.78;;;2.81;100.00
51781;BME280;37844;57.126;24.288;2023-10-19T02:44:28;101184.94;;;2.78;100.00
51781;BME280;37844;57.126;24.288;2023-10-19T02:47:14;101183.06;;;2.73;100.00
51781;BME280;37844;57.126;24.288;2023-10-19T02:49:58;101183.94;;;2.74;100.00
51781;BME280;37844;57.126;24.288;2023-10-19T02:52:42;101182.72;;;2.84;100.00
51781;BME280;37844;57.126;24.288;2023-10-19T02:55:27;101183.72;;;3.04;100.00
51781;BME280;37844;57.126;24.288;2023-10-19T02:58:12;101180.28;;;3.19;100.00
51781;BME280;37844;57.126;24.288;2023-10-19T03:00:57;101180.03;;;2.97;100.00
51781;BME280;37844;57.126;24.288;2023-10-19T03:03:43;101183.84;;;2.56;100.00
51781;BME280;37844;57.126;24.288;2023-10-19T03:06:28;101182.19;;;2.57;100.00
51781;BME280;37844;57.126;24.288;2023-10-19T03:09:16;101180.56;;;2.59;100.00
51781;BME280;37844;57.126;24.288;2023-10-19T03:12:06;101179.47;;;2.53;100.00
51781;BME280;37844;57.126;24.288;2023-10-19T03:14:54;101179.19;;;2.64;100.00
51781;BME280;37844;57.126;24.288;2023-10-19T03:17:38;101191.66;;;2.75;100.00
51781;BME280;37844;57.126;24.288;2023-10-19T03:20:29;101187.81;;;2.67;100.00
51781;BME280;37844;57.126;24.288;2023-10-19T03:23:19;101191.47;;;2.89;100.00
51781;BME280;37844;57.126;24.288;2023-10-19T03:26:04;101196.03;;;2.94;100.00
51781;BME280;37844;57.126;24.288;2023-10-19T03:29:07;101181.63;;;2.79;100.00
51781;BME280;37844;57.126;24.288;2023-10-19T03:31:56;101188.69;;;2.51;100.00
51781;BME280;37844;57.126;24.288;2023-10-19T03:34:40;101183.94;;;2.58;100.00
51781;BME280;37844;57.126;24.288;2023-10-19T03:37:31;101190.13;;;2.46;100.00
51781;BME280;37844;57.126;24.288;2023-10-19T03:40:18;101192.44;;;2.58;100.00
51781;BME280;37844;57.126;24.288;2023-10-19T03:43:12;101193.53;;;2.63;100.00
51781;BME280;37844;57.126;24.288;2023-10-19T03:46:05;101189.16;;;2.77;100.00
51781;BME280;37844;57.126;24.288;2023-10-19T03:48:58;101197.63;;;2.76;100.00
51781;BME280;37844;57.126;24.288;2023-10-19T03:51:54;101199.13;;;2.72;100.00
51781;BME280;37844;57.126;24.288;2023-10-19T03:55:04;101196.81;;;2.61;100.00
51781;BME280;37844;57.126;24.288;2023-10-19T03:57:55;101192.84;;;2.66;100.00
51781;BME280;37844;57.126;24.288;2023-10-19T04:00:39;101189.75;;;2.88;100.00
51781;BME280;37844;57.126;24.288;2023-10-19T04:03:23;101192.41;;;3.07;100.00
51781;BME280;37844;57.126;24.288;2023-10-19T04:06:09;101189.84;;;3.24;100.00
51781;BME280;37844;57.126;24.288;2023-10-19T04:08:57;101183.94;;;3.25;100.00
51781;BME280;37844;57.126;24.288;2023-10-19T04:11:43;101180.03;;;2.97;100.00
51781;BME280;37844;57.126;24.288;2023-10-19T04:14:35;101186.31;;;2.87;100.00
51781;BME280;37844;57.126;24.288;2023-10-19T04:17:19;101185.16;;;2.98;100.00
51781;BME280;37844;57.126;24.288;2023-10-19T04:20:05;101174.75;;;2.94;100.00
51781;BME280;37844;57.126;24.288;2023-10-19T04:23:01;101184.53;;;3.03;100.00
51781;BME280;37844;57.126;24.288;2023-10-19T04:25:55;101178.38;;;3.15;100.00
51781;BME280;37844;57.126;24.288;2023-10-19T04:28:42;101191.06;;;3.32;100.00
51781;BME280;37844;57.126;24.288;2023-10-19T04:31:33;101186.75;;;3.47;100.00
51781;BME280;37844;57.126;24.288;2023-10-19T04:34:17;101192.94;;;3.52;100.00
51781;BME280;37844;57.126;24.288;2023-10-19T04:37:04;101184.16;;;3.64;100.00
51781;BME280;37844;57.126;24.288;2023-10-19T04:39:49;101177.38;;;3.64;100.00
51781;BME280;37844;57.126;24.288;2023-10-19T04:42:33;101182.38;;;3.63;100.00
51781;BME280;37844;57.126;24.288;2023-10-19T04:45:17;101172.91;;;3.60;100.00
51781;BME280;37844;57.126;24.288;2023-10-19T04:48:01;101184.41;;;3.70;100.00
51781;BME280;37844;57.126;24.288;2023-10-19T04:50:48;101185.09;;;3.66;100.00
51781;BME280;37844;57.126;24.288;2023-10-19T04:53:33;101182.69;;;3.69;100.00
51781;BME280;37844;57.126;24.288;2023-10-19T04:56:17;101180.88;;;3.66;100.00
51781;BME280;37844;57.126;24.288;2023-10-19T04:59:02;101172.84;;;3.58;100.00
51781;BME280;37844;57.126;24.288;2023-10-19T05:01:46;101175.41;;;3.58;100.00
51781;BME280;37844;57.126;24.288;2023-10-19T05:04:30;101172.63;;;3.54;100.00
51781;BME280;37844;57.126;24.288;2023-10-19T05:07:14;101175.38;;;3.40;100.00
51781;BME280;37844;57.126;24.288;2023-10-19T05:10:00;101175.69;;;3.47;100.00
51781;BME280;37844;57.126;24.288;2023-10-19T05:12:44;101174.88;;;3.48;100.00
51781;BME280;37844;57.126;24.288;2023-10-19T05:15:28;101179.97;;;3.48;100.00
51781;BME280;37844;57.126;24.288;2023-10-19T05:18:13;101181.06;;;3.53;100.00
51781;BME280;37844;57.126;24.288;2023-10-19T05:20:57;101176.41;;;3.62;100.00
51781;BME280;37844;57.126;24.288;2023-10-19T05:23:42;101183.09;;;3.42;100.00
51781;BME280;37844;57.126;24.288;2023-10-19T05:26:27;101182.44;;;3.46;100.00
51781;BME280;37844;57.126;24.288;2023-10-19T05:29:11;101174.00;;;3.65;100.00
51781;BME280;37844;57.126;24.288;2023-10-19T05:31:56;101174.59;;;3.77;100.00
51781;BME280;37844;57.126;24.288;2023-10-19T05:34:41;101173.41;;;3.89;100.00
51781;BME280;37844;57.126;24.288;2023-10-19T05:37:25;101176.53;;;4.01;100.00
51781;BME280;37844;57.126;24.288;2023-10-19T05:40:13;101174.78;;;4.18;100.00
51781;BME280;37844;57.126;24.288;2023-10-19T05:42:59;101180.56;;;4.33;100.00
51781;BME280;37844;57.126;24.288;2023-10-19T05:45:44;101183.50;;;4.23;100.00
51781;BME280;37844;57.126;24.288;2023-10-19T05:48:29;101172.69;;;4.29;100.00
51781;BME280;37844;57.126;24.288;2023-10-19T05:51:13;101177.38;;;4.19;100.00
51781;BME280;37844;57.126;24.288;2023-10-19T05:53:58;101180.16;;;4.24;100.00
51781;BME280;37844;57.126;24.288;2023-10-19T05:56:45;101178.31;;;4.21;100.00
51781;BME280;37844;57.126;24.288;2023-10-19T05:59:30;101176.81;;;4.25;100.00
51781;BME280;37844;57.126;24.288;2023-10-19T06:02:17;101173.00;;;4.35;100.00
51781;BME280;37844;57.126;24.288;2023-10-19T06:05:01;101178.44;;;4.42;100.00
51781;BME280;37844;57.126;24.288;2023-10-19T06:07:46;101179.78;;;4.54;100.00
51781;BME280;37844;57.126;24.288;2023-10-19T06:10:31;101182.69;;;4.61;100.00
51781;BME280;37844;57.126;24.288;2023-10-19T06:13:16;101179.19;;;4.59;100.00
51781;BME280;37844;57.126;24.288;2023-10-19T06:16:00;101172.91;;;4.53;100.00
51781;BME280;37844;57.126;24.288;2023-10-19T06:18:44;101184.94;;;4.55;100.00
51781;BME280;37844;57.126;24.288;2023-10-19T06:21:28;101193.41;;;4.54;100.00
51781;BME280;37844;57.126;24.288;2023-10-19T06:24:13;101180.72;;;4.56;100.00
51781;BME280;37844;57.126;24.288;2023-10-19T06:26:58;101185.34;;;4.64;100.00
51781;BME280;37844;57.126;24.288;2023-10-19T06:29:42;101186.09;;;4.62;100.00
51781;BME280;37844;57.126;24.288;2023-10-19T06:32:27;101181.31;;;4.50;100.00
51781;BME280;37844;57.126;24.288;2023-10-19T06:35:11;101181.72;;;4.59;100.00
51781;BME280;37844;57.126;24.288;2023-10-19T06:37:55;101191.00;;;4.57;100.00
51781;BME280;37844;57.126;24.288;2023-10-19T06:40:39;101194.38;;;4.56;100.00
51781;BME280;37844;57.126;24.288;2023-10-19T06:43:24;101191.41;;;4.47;100.00
51781;BME280;37844;57.126;24.288;2023-10-19T06:46:12;101200.97;;;4.33;100.00
51781;BME280;37844;57.126;24.288;2023-10-19T06:48:56;101196.91;;;4.37;100.00
51781;BME280;37844;57.126;24.288;2023-10-19T06:51:44;101195.78;;;4.32;100.00
51781;BME280;37844;57.126;24.288;2023-10-19T06:54:28;101186.28;;;4.28;100.00
51781;BME280;37844;57.126;24.288;2023-10-19T06:57:13;101183.63;;;4.44;100.00
51781;BME280;37844;57.126;24.288;2023-10-19T06:59:57;101191.41;;;4.66;100.00
51781;BME280;37844;57.126;24.288;2023-10-19T07:02:43;101188.84;;;4.86;100.00
51781;BME280;37844;57.126;24.288;2023-10-19T07:05:27;101163.63;;;4.74;100.00
51781;BME280;37844;57.126;24.288;2023-10-19T07:08:14;101189.31;;;4.97;100.00
51781;BME280;37844;57.126;24.288;2023-10-19T07:10:59;101188.56;;;4.99;100.00
51781;BME280;37844;57.126;24.288;2023-10-19T07:13:43;101190.81;;;4.92;100.00
51781;BME280;37844;57.126;24.288;2023-10-19T07:16:27;101189.19;;;4.94;100.00
51781;BME280;37844;57.126;24.288;2023-10-19T07:19:12;101184.41;;;5.01;100.00
51781;BME280;37844;57.126;24.288;2023-10-19T07:21:57;101193.06;;;5.05;100.00
51781;BME280;37844;57.126;24.288;2023-10-19T07:24:51;101184.84;;;5.12;100.00
51781;BME280;37844;57.126;24.288;2023-10-19T07:27:35;101188.41;;;5.16;100.00
51781;BME280;37844;57.126;24.288;2023-10-19T07:30:20;101187.38;;;4.72;100.00
51781;BME280;37844;57.126;24.288;2023-10-19T07:33:11;101176.75;;;4.82;100.00
51781;BME280;37844;57.126;24.288;2023-10-19T07:36:01;101183.91;;;5.10;100.00
51781;BME280;37844;57.126;24.288;2023-10-19T07:38:50;101177.31;;;5.15;100.00
51781;BME280;37844;57.126;24.288;2023-10-19T07:41:35;101177.56;;;5.63;100.00
51781;BME280;37844;57.126;24.288;2023-10-19T07:44:20;101172.63;;;6.11;100.00
51781;BME280;37844;57.126;24.288;2023-10-19T07:47:04;101169.53;;;6.43;100.00
51781;BME280;37844;57.126;24.288;2023-10-19T07:49:51;101172.09;;;6.67;98.37
51781;BME280;37844;57.126;24.288;2023-10-19T07:52:36;101174.78;;;6.70;95.52
51781;BME280;37844;57.126;24.288;2023-10-19T07:55:21;101173.88;;;6.45;94.39
51781;BME280;37844;57.126;24.288;2023-10-19T07:58:08;101175.25;;;6.13;95.54
51781;BME280;37844;57.126;24.288;2023-10-19T08:00:52;101174.66;;;5.98;96.42
51781;BME280;37844;57.126;24.288;2023-10-19T08:03:37;101183.06;;;6.16;95.75
51781;BME280;37844;57.126;24.288;2023-10-19T08:06:21;101185.69;;;5.32;97.01
51781;BME280;37844;57.126;24.288;2023-10-19T08:09:05;101173.50;;;5.05;99.06
51781;BME280;37844;57.126;24.288;2023-10-19T08:11:50;101179.84;;;4.94;100.00
51781;BME280;37844;57.126;24.288;2023-10-19T08:14:39;101183.81;;;5.28;100.00
51781;BME280;37844;57.126;24.288;2023-10-19T08:17:24;101181.44;;;5.32;100.00
51781;BME280;37844;57.126;24.288;2023-10-19T08:20:10;101172.47;;;5.42;100.00
51781;BME280;37844;57.126;24.288;2023-10-19T08:23:00;101173.41;;;5.65;100.00
51781;BME280;37844;57.126;24.288;2023-10-19T08:25:45;101164.28;;;5.72;99.43
51781;BME280;37844;57.126;24.288;2023-10-19T08:28:29;101172.63;;;5.68;99.33
51781;BME280;37844;57.126;24.288;2023-10-19T08:31:13;101184.03;;;5.76;100.00
51781;BME280;37844;57.126;24.288;2023-10-19T08:33:58;101185.59;;;5.93;100.00
51781;BME280;37844;57.126;24.288;2023-10-19T08:36:42;101182.66;;;6.05;100.00
51781;BME280;37844;57.126;24.288;2023-10-19T08:39:26;101188.75;;;6.09;100.00
51781;BME280;37844;57.126;24.288;2023-10-19T08:42:10;101186.91;;;6.27;100.00
51781;BME280;37844;57.126;24.288;2023-10-19T08:44:54;101186.84;;;6.50;100.00
51781;BME280;37844;57.126;24.288;2023-10-19T08:48:00;101188.97;;;6.60;98.99
51781;BME280;37844;57.126;24.288;2023-10-19T08:50:45;101191.59;;;6.39;94.18
51781;BME280;37844;57.126;24.288;2023-10-19T08:53:30;101193.00;;;6.31;91.78
51781;BME280;37844;57.126;24.288;2023-10-19T08:56:15;101196.53;;;6.12;90.75
51781;BME280;37844;57.126;24.288;2023-10-19T08:59:01;101185.03;;;6.01;89.66
51781;BME280;37844;57.126;24.288;2023-10-19T09:01:45;101199.97;;;6.35;90.06
51781;BME280;37844;57.126;24.288;2023-10-19T09:04:30;101198.88;;;6.51;89.29
51781;BME280;37844;57.126;24.288;2023-10-19T09:07:16;101189.91;;;6.64;88.21
51781;BME280;37844;57.126;24.288;2023-10-19T09:10:00;101194.72;;;6.78;87.84
51781;BME280;37844;57.126;24.288;2023-10-19T09:12:59;101194.78;;;6.80;86.92
51781;BME280;37844;57.126;24.288;2023-10-19T09:15:43;101195.63;;;6.56;86.19
51781;BME280;37844;57.126;24.288;2023-10-19T09:18:28;101198.97;;;6.54;86.15
51781;BME280;37844;57.126;24.288;2023-10-19T09:21:18;101194.34;;;6.92;86.88
51781;BME280;37844;57.126;24.288;2023-10-19T09:24:09;101196.69;;;7.10;86.52
51781;BME280;37844;57.126;24.288;2023-10-19T09:26:53;101199.28;;;7.37;85.64
51781;BME280;37844;57.126;24.288;2023-10-19T09:29:37;101199.13;;;7.58;84.64
51781;BME280;37844;57.126;24.288;2023-10-19T09:32:21;101194.63;;;7.78;84.14
51781;BME280;37844;57.126;24.288;2023-10-19T09:35:07;101197.78;;;7.96;83.00
51781;BME280;37844;57.126;24.288;2023-10-19T09:37:54;101198.38;;;8.16;82.27
51781;BME280;37844;57.126;24.288;2023-10-19T09:40:39;101193.56;;;8.27;80.91
51781;BME280;37844;57.126;24.288;2023-10-19T09:43:50;101188.75;;;8.38;80.70
51781;BME280;37844;57.126;24.288;2023-10-19T09:46:37;101183.84;;;8.17;78.59
51781;BME280;37844;57.126;24.288;2023-10-19T09:49:23;101183.78;;;8.15;78.63
51781;BME280;37844;57.126;24.288;2023-10-19T09:52:09;101188.13;;;8.16;78.08
51781;BME280;37844;57.126;24.288;2023-10-19T09:54:59;101174.84;;;8.31;78.60
51781;BME280;37844;57.126;24.288;2023-10-19T09:57:54;101176.81;;;8.40;78.09
51781;BME280;37844;57.126;24.288;2023-10-19T10:00:44;101171.50;;;8.34;76.23
51781;BME280;37844;57.126;24.288;2023-10-19T10:03:50;101175.59;;;7.98;75.82
51781;BME280;37844;57.126;24.288;2023-10-19T10:09:39;101175.91;;;8.68;77.07
51781;BME280;37844;57.126;24.288;2023-10-19T10:12:25;101172.13;;;9.20;75.69
51781;BME280;37844;57.126;24.288;2023-10-19T10:15:10;101175.69;;;9.59;75.17
51781;BME280;37844;57.126;24.288;2023-10-19T10:17:55;101174.56;;;9.49;72.26
51781;BME280;37844;57.126;24.288;2023-10-19T10:20:42;101177.63;;;9.32;71.57
51781;BME280;37844;57.126;24.288;2023-10-19T10:23:25;101170.25;;;9.13;71.13
51781;BME280;37844;57.126;24.288;2023-10-19T10:26:17;101184.50;;;9.33;71.59
51781;BME280;37844;57.126;24.288;2023-10-19T10:31:58;101177.72;;;9.04;69.66
51781;BME280;37844;57.126;24.288;2023-10-19T10:34:43;101173.38;;;8.69;70.17
51781;BME280;37844;57.126;24.288;2023-10-19T10:37:28;101172.53;;;8.70;70.60
51781;BME280;37844;57.126;24.288;2023-10-19T10:40:17;101169.91;;;8.67;70.81
51781;BME280;37844;57.126;24.288;2023-10-19T10:43:05;101167.94;;;8.59;71.86
51781;BME280;37844;57.126;24.288;2023-10-19T10:45:50;101165.38;;;8.59;71.85
51781;BME280;37844;57.126;24.288;2023-10-19T10:48:41;101173.22;;;8.63;72.12
51781;BME280;37844;57.126;24.288;2023-10-19T10:51:27;101167.75;;;8.22;70.69
51781;BME280;37844;57.126;24.288;2023-10-19T10:54:21;101163.66;;;8.00;70.68
51781;BME280;37844;57.126;24.288;2023-10-19T10:57:05;101167.03;;;7.99;72.89
51781;BME280;37844;57.126;24.288;2023-10-19T11:00:09;101159.03;;;8.17;75.73
51781;BME280;37844;57.126;24.288;2023-10-19T11:03:01;101160.09;;;8.54;74.11
51781;BME280;37844;57.126;24.288;2023-10-19T11:05:45;101148.03;;;8.50;72.88
51781;BME280;37844;57.126;24.288;2023-10-19T11:08:32;101141.63;;;8.67;73.39
51781;BME280;37844;57.126;24.288;2023-10-19T11:11:17;101157.75;;;8.94;73.27
51781;BME280;37844;57.126;24.288;2023-10-19T11:14:09;101148.75;;;9.11;69.77
51781;BME280;37844;57.126;24.288;2023-10-19T11:16:55;101149.09;;;9.23;69.15
51781;BME280;37844;57.126;24.288;2023-10-19T11:19:55;101148.66;;;9.41;68.68
51781;BME280;37844;57.126;24.288;2023-10-19T11:22:50;101142.03;;;9.51;67.86
51781;BME280;37844;57.126;24.288;2023-10-19T11:25:35;101141.41;;;9.61;66.97
51781;BME280;37844;57.126;24.288;2023-10-19T11:28:19;101149.22;;;9.29;67.52
51781;BME280;37844;57.126;24.288;2023-10-19T11:31:34;101150.09;;;9.30;68.75
51781;BME280;37844;57.126;24.288;2023-10-19T11:34:25;101146.00;;;9.38;68.36
51781;BME280;37844;57.126;24.288;2023-10-19T11:37:09;101151.91;;;9.32;68.79
51781;BME280;37844;57.126;24.288;2023-10-19T11:39:54;101141.91;;;9.46;69.75
51781;BME280;37844;57.126;24.288;2023-10-19T11:42:38;101155.22;;;9.30;69.01
51781;BME280;37844;57.126;24.288;2023-10-19T11:45:24;101148.84;;;9.14;69.17
51781;BME280;37844;57.126;24.288;2023-10-19T11:48:08;101150.09;;;8.97;68.95
51781;BME280;37844;57.126;24.288;2023-10-19T11:50:52;101148.06;;;8.83;70.23
51781;BME280;37844;57.126;24.288;2023-10-19T11:53:38;101160.78;;;8.79;70.68
51781;BME280;37844;57.126;24.288;2023-10-19T11:56:22;101157.09;;;8.69;70.44
51781;BME280;37844;57.126;24.288;2023-10-19T11:59:09;101156.97;;;8.64;70.61
51781;BME280;37844;57.126;24.288;2023-10-19T12:01:52;101155.00;;;8.56;70.50
51781;BME280;37844;57.126;24.288;2023-10-19T12:04:38;101154.72;;;8.45;70.07
51781;BME280;37844;57.126;24.288;2023-10-19T12:07:22;101152.03;;;8.12;68.77
51781;BME280;37844;57.126;24.288;2023-10-19T12:10:07;101146.06;;;7.84;67.71
51781;BME280;37844;57.126;24.288;2023-10-19T12:12:52;101147.28;;;7.68;68.17
51781;BME280;37844;57.126;24.288;2023-10-19T12:15:36;101144.31;;;7.83;68.85
51781;BME280;37844;57.126;24.288;2023-10-19T12:18:21;101147.06;;;7.89;68.59
51781;BME280;37844;57.126;24.288;2023-10-19T12:21:05;101150.63;;;7.93;67.31
51781;BME280;37844;57.126;24.288;2023-10-19T12:23:55;101155.84;;;7.96;66.76
51781;BME280;37844;57.126;24.288;2023-10-19T12:26:40;101147.16;;;7.92;66.92
51781;BME280;37844;57.126;24.288;2023-10-19T12:29:24;101145.47;;;7.93;66.46
51781;BME280;37844;57.126;24.288;2023-10-19T12:32:09;101150.34;;;7.83;65.97
51781;BME280;37844;57.126;24.288;2023-10-19T12:34:53;101139.72;;;7.73;66.11
51781;BME280;37844;57.126;24.288;2023-10-19T12:37:41;101143.22;;;7.75;66.43
51781;BME280;37844;57.126;24.288;2023-10-19T12:40:35;101142.00;;;7.63;67.20
51781;BME280;37844;57.126;24.288;2023-10-19T12:43:19;101138.72;;;7.68;67.86
51781;BME280;37844;57.126;24.288;2023-10-19T12:46:03;101128.63;;;7.45;68.30
51781;BME280;37844;57.126;24.288;2023-10-19T12:48:47;101133.19;;;7.28;67.80
51781;BME280;37844;57.126;24.288;2023-10-19T12:51:32;101129.44;;;7.18;68.12
51781;BME280;37844;57.126;24.288;2023-10-19T12:54:15;101122.38;;;7.11;67.98
51781;BME280;37844;57.126;24.288;2023-10-19T12:57:01;101101.56;;;7.02;68.62
51781;BME280;37844;57.126;24.288;2023-10-19T12:59:45;101122.84;;;7.25;67.62
51781;BME280;37844;57.126;24.288;2023-10-19T13:02:29;101109.63;;;7.40;67.05
51781;BME280;37844;57.126;24.288;2023-10-19T13:05:14;101120.16;;;7.48;67.63
51781;BME280;37844;57.126;24.288;2023-10-19T13:08:02;101109.59;;;7.38;67.09
51781;BME280;37844;57.126;24.288;2023-10-19T13:10:47;101113.81;;;7.38;67.23
51781;BME280;37844;57.126;24.288;2023-10-19T13:13:32;101117.22;;;7.10;65.10
51781;BME280;37844;57.126;24.288;2023-10-19T13:16:16;101120.75;;;6.64;64.98
51781;BME280;37844;57.126;24.288;2023-10-19T13:19:01;101117.06;;;6.79;66.91
51781;BME280;37844;57.126;24.288;2023-10-19T13:21:56;101124.19;;;6.64;67.18
51781;BME280;37844;57.126;24.288;2023-10-19T13:24:44;101128.25;;;6.57;67.87
51781;BME280;37844;57.126;24.288;2023-10-19T13:27:29;101119.22;;;6.43;69.18
51781;BME280;37844;57.126;24.288;2023-10-19T13:30:16;101120.72;;;5.93;68.87
51781;BME280;37844;57.126;24.288;2023-10-19T13:32:59;101127.09;;;5.59;71.42
51781;BME280;37844;57.126;24.288;2023-10-19T13:35:45;101117.53;;;5.76;72.79
51781;BME280;37844;57.126;24.288;2023-10-19T13:38:30;101116.94;;;5.61;72.61
51781;BME280;37844;57.126;24.288;2023-10-19T13:41:14;101111.06;;;5.63;74.19
51781;BME280;37844;57.126;24.288;2023-10-19T13:44:00;101095.09;;;5.69;75.75
51781;BME280;37844;57.126;24.288;2023-10-19T13:46:44;101114.28;;;5.80;75.66
51781;BME280;37844;57.126;24.288;2023-10-19T13:49:29;101125.31;;;5.15;76.79
51781;BME280;37844;57.126;24.288;2023-10-19T13:52:13;101117.81;;;4.98;78.92
51781;BME280;37844;57.126;24.288;2023-10-19T13:54:58;101116.13;;;4.78;81.25
51781;BME280;37844;57.126;24.288;2023-10-19T13:57:42;101114.56;;;4.81;82.42
51781;BME280;37844;57.126;24.288;2023-10-19T14:00:34;101115.31;;;4.79;83.86
51781;BME280;37844;57.126;24.288;2023-10-19T14:03:25;101113.34;;;4.93;84.62
51781;BME280;37844;57.126;24.288;2023-10-19T14:06:13;101114.03;;;4.88;85.57
51781;BME280;37844;57.126;24.288;2023-10-19T14:08:57;101105.38;;;4.85;86.88
51781;BME280;37844;57.126;24.288;2023-10-19T14:11:41;101109.97;;;4.73;88.32
51781;BME280;37844;57.126;24.288;2023-10-19T14:14:25;101112.06;;;4.62;89.68
51781;BME280;37844;57.126;24.288;2023-10-19T14:17:09;101107.81;;;4.62;89.98
51781;BME280;37844;57.126;24.288;2023-10-19T14:19:53;101113.75;;;4.61;90.91
51781;BME280;37844;57.126;24.288;2023-10-19T14:22:42;101111.81;;;4.56;90.79
51781;BME280;37844;57.126;24.288;2023-10-19T14:25:27;101108.91;;;4.67;91.77
51781;BME280;37844;57.126;24.288;2023-10-19T14:28:12;101110.66;;;4.49;89.94
51781;BME280;37844;57.126;24.288;2023-10-19T14:30:56;101111.94;;;4.59;90.59
51781;BME280;37844;57.126;24.288;2023-10-19T14:33:41;101113.81;;;4.63;92.06